Time;durP1;ratioP1;P1;durP2;ratioP2;P2;SDS_P1;SDS_P2;PMS_P1;PMS_P2;Temp;Humidity;BMP_temperature;BMP_pressure;BME280_temperature;BME280_humidity;BME280_pressure;Samples;Min_cycle;Max_cycle;Signal;HPM_P1;HPM_P2
2023/02/01 00:00:04;;;;;;;17.10;11.80;;;;;;;7.38;82.40;100072.36;108332;1280;21999;-70
2023/02/01 00:02:30;;;;;;;14.00;10.00;;;;;;;7.39;82.26;100072.88;108321;1284;22018;-69
2023/02/01 00:04:56;;;;;;;15.00;9.30;;;;;;;7.38;81.92;100073.23;108308;1284;23710;-67
2023/02/01 00:07:22;;;;;;;15.60;10.60;;;;;;;7.36;81.85;100073.41;108309;1284;21985;-70
2023/02/01 00:09:47;;;;;;;16.70;9.80;;;;;;;7.32;81.72;100075.86;108305;1284;21988;-70
2023/02/01 00:12:14;;;;;;;13.30;9.00;;;;;;;7.32;81.27;100077.45;108320;1280;22062;-70
2023/02/01 00:14:40;;;;;;;15.70;9.50;;;;;;;7.30;81.36;100077.27;108369;1283;22018;-68
2023/02/01 00:17:06;;;;;;;13.90;9.60;;;;;;;7.28;81.40;100076.59;108315;1284;22042;-70
2023/02/01 00:19:33;;;;;;;16.80;10.40;;;;;;;7.26;81.54;100073.10;108380;1283;21998;-69
2023/02/01 00:21:59;;;;;;;17.10;9.40;;;;;;;7.25;81.49;100074.51;108378;1271;21985;-69
2023/02/01 00:24:24;;;;;;;17.20;10.00;;;;;;;7.24;81.76;100068.92;108334;1284;22000;-68
2023/02/01 00:26:50;;;;;;;15.30;9.20;;;;;;;7.25;81.61;100069.80;108342;1278;22018;-69
2023/02/01 00:29:17;;;;;;;13.10;9.10;;;;;;;7.25;81.31;100069.80;108340;1284;21993;-67
2023/02/01 00:31:43;;;;;;;14.10;9.30;;;;;;;7.24;81.61;100071.38;108375;1284;23087;-69
2023/02/01 00:34:12;;;;;;;14.20;9.30;;;;;;;7.23;81.57;100068.41;108360;1284;21993;-67
2023/02/01 00:36:38;;;;;;;14.20;9.60;;;;;;;7.23;81.59;100069.98;108334;1284;21989;-67
2023/02/01 00:39:04;;;;;;;17.40;10.20;;;;;;;7.22;81.43;100071.04;108316;1283;21982;-67
2023/02/01 00:41:30;;;;;;;13.60;9.30;;;;;;;7.21;81.46;100073.82;108304;1281;21988;-69
2023/02/01 00:43:56;;;;;;;15.90;9.50;;;;;;;7.19;81.71;100073.48;108368;1284;21981;-67
2023/02/01 00:46:22;;;;;;;15.70;8.60;;;;;;;7.17;81.73;100072.80;108317;1283;22023;-67
2023/02/01 00:48:48;;;;;;;15.40;9.90;;;;;;;7.16;81.78;100066.34;108359;1283;21987;-67
2023/02/01 00:51:15;;;;;;;15.80;9.80;;;;;;;7.14;81.69;100065.29;108458;1274;21985;-67
2023/02/01 00:53:41;;;;;;;12.60;8.90;;;;;;;7.14;81.67;100061.28;108461;1282;22448;-69
2023/02/01 00:56:07;;;;;;;15.70;9.40;;;;;;;7.14;81.71;100061.29;108338;1283;21983;-67
2023/02/01 00:58:34;;;;;;;14.00;8.40;;;;;;;7.12;81.69;100058.66;108469;1277;21983;-66
2023/02/01 01:01:13;;;;;;;13.50;8.70;;;;;;;7.11;81.87;100059.71;108426;1282;23788;-69
2023/02/01 01:03:41;;;;;;;13.10;9.00;;;;;;;7.10;81.89;100056.73;108428;1282;22037;-69
2023/02/01 01:06:14;;;;;;;14.20;9.30;;;;;;;7.13;81.87;100056.58;108449;1281;21983;-70
2023/02/01 01:08:44;;;;;;;16.70;10.00;;;;;;;7.12;81.69;100055.35;108422;1282;23788;-69
2023/02/01 01:11:14;;;;;;;14.80;9.10;;;;;;;7.11;81.67;100059.02;108403;1283;21988;-67
2023/02/01 01:13:40;;;;;;;16.30;9.30;;;;;;;7.11;81.85;100061.28;108405;1283;22004;-66
2023/02/01 01:16:06;;;;;;;14.10;8.20;;;;;;;7.11;81.87;100059.89;108221;1283;21986;-70
2023/02/01 01:18:33;;;;;;;14.40;8.80;;;;;;;7.11;81.64;100056.40;108412;1283;21982;-69
2023/02/01 01:20:59;;;;;;;13.10;8.60;;;;;;;7.10;81.51;100056.92;108399;1283;21978;-69
2023/02/01 01:23:24;;;;;;;12.30;8.10;;;;;;;7.10;81.63;100059.54;108409;1283;21951;-70
2023/02/01 01:25:50;;;;;;;12.70;8.60;;;;;;;7.08;81.57;100060.95;108395;1283;21992;-67
2023/02/01 01:28:16;;;;;;;13.30;8.20;;;;;;;7.09;81.50;100060.07;108448;1281;21987;-67
2023/02/01 01:30:42;;;;;;;13.30;8.10;;;;;;;7.10;81.67;100056.58;108391;1283;21983;-69
2023/02/01 01:33:07;;;;;;;14.10;7.70;;;;;;;7.12;81.78;100061.63;108417;1283;21982;-69
2023/02/01 01:35:33;;;;;;;11.70;7.90;;;;;;;7.12;81.75;100060.58;107656;1283;1003149;-67
2023/02/01 01:38:00;;;;;;;11.30;8.00;;;;;;;7.13;81.87;100061.10;108313;1280;22022;-67
2023/02/01 01:40:26;;;;;;;13.40;8.40;;;;;;;7.13;81.58;100060.05;108383;1280;22023;-67
2023/02/01 01:42:54;;;;;;;12.90;8.20;;;;;;;7.14;81.58;100062.84;108455;1283;23742;-67
2023/02/01 01:45:30;;;;;;;12.90;8.00;;;;;;;7.14;81.72;100061.45;108432;1283;21980;-67
2023/02/01 01:47:57;;;;;;;12.00;7.50;;;;;;;7.13;81.50;100062.14;108396;1283;21977;-70
2023/02/01 01:50:29;;;;;;;12.30;7.60;;;;;;;7.13;81.41;100059.88;108448;1283;21992;-69
2023/02/01 01:52:57;;;;;;;13.10;8.40;;;;;;;7.14;81.34;100061.28;108460;1272;21985;-67
2023/02/01 01:55:25;;;;;;;13.70;7.80;;;;;;;7.14;81.34;100063.02;108394;1283;23309;-69
2023/02/01 01:57:56;;;;;;;14.90;7.80;;;;;;;7.13;81.37;100067.73;108244;1275;21983;-69
2023/02/01 02:00:22;;;;;;;14.40;8.00;;;;;;;7.10;81.14;100066.86;108446;1277;21982;-67
2023/02/01 02:03:39;;;;;;;13.60;8.00;;;;;;;7.08;81.33;100066.00;108291;1283;23755;-69
2023/02/01 02:06:07;;;;;;;14.20;7.70;;;;;;;7.06;81.21;100065.84;108398;1283;21986;-69
2023/02/01 02:08:33;;;;;;;13.40;8.10;;;;;;;7.06;81.43;100065.34;108443;1283;21987;-67
2023/02/01 02:10:59;;;;;;;15.40;8.30;;;;;;;7.04;81.39;100064.29;108372;1283;21985;-70
2023/02/01 02:13:45;;;;;;;12.50;8.00;;;;;;;7.06;81.52;100065.15;108383;1283;21976;-67
2023/02/01 02:16:14;;;;;;;11.70;7.40;;;;;;;7.08;81.46;100063.73;108401;1276;22771;-70
2023/02/01 02:18:46;;;;;;;13.10;7.30;;;;;;;7.09;81.61;100062.33;108403;1283;21985;-69
2023/02/01 02:21:24;;;;;;;12.90;7.50;;;;;;;7.09;81.30;100061.81;108424;1282;22056;-67
2023/02/01 02:24:01;;;;;;;15.50;8.40;;;;;;;7.07;81.31;100055.90;108398;1283;21996;-70
2023/02/01 02:26:34;;;;;;;12.10;8.00;;;;;;;7.07;81.41;100052.92;108418;1282;21990;-69
2023/02/01 02:29:21;;;;;;;12.80;7.20;;;;;;;7.11;81.45;100054.13;108455;1283;21990;-66
2023/02/01 02:32:25;;;;;;;12.90;7.20;;;;;;;7.11;81.23;100055.18;108435;1282;22008;-70
2023/02/01 02:34:56;;;;;;;13.40;7.80;;;;;;;7.11;80.96;100058.48;108064;1283;22192;-66
2023/02/01 02:37:33;;;;;;;;;;;;;;;7.08;80.97;100056.94;108457;1282;21969;-67
2023/02/01 02:40:07;;;;;;;13.00;7.80;;;;;;;7.08;80.97;100055.18;108448;1282;21985;-66
2023/02/01 02:55:51;;;;;;;12.50;8.50;;;;;;;7.06;81.14;100062.70;108320;1284;21997;-69
2023/02/01 03:04:08;;;;;;;15.10;8.10;;;;;;;7.05;80.98;100059.05;108279;1280;21989;-67
2023/02/01 03:06:34;;;;;;;14.30;8.30;;;;;;;7.05;80.94;100056.96;108166;1284;22023;-67
2023/02/01 03:09:01;;;;;;;10.80;6.90;;;;;;;7.04;80.70;100055.21;108321;1271;22012;-67
2023/02/01 03:12:55;;;;;;;14.80;8.50;;;;;;;7.04;80.78;100056.25;108389;1284;22062;-69
2023/02/01 03:14:13;;;;;;;13.00;8.10;;;;;;;7.05;80.78;100053.46;108159;1284;21982;-70
2023/02/01 03:17:01;;;;;;;13.40;7.80;;;;;;;7.04;80.65;100053.83;107602;1284;1003222;-68
2023/02/01 03:19:33;;;;;;;15.50;8.10;;;;;;;7.02;80.78;100048.06;108359;1283;21982;-67
2023/02/01 03:22:07;;;;;;;12.50;7.60;;;;;;;6.99;80.58;100049.64;108374;1283;22039;-70
2023/02/01 03:24:50;;;;;;;14.00;7.20;;;;;;;6.98;80.13;100050.17;108365;1283;21978;-67
2023/02/01 03:27:42;;;;;;;11.80;6.00;;;;;;;6.94;79.71;100048.77;108303;1283;21980;-67
2023/02/01 03:30:11;;;;;;;15.10;7.50;;;;;;;6.90;79.81;100047.04;108076;1282;21997;-67
2023/02/01 03:35:33;;;;;;;12.10;7.20;;;;;;;6.79;79.50;100049.34;107555;1283;1002350;-70
2023/02/01 03:38:22;;;;;;;12.00;7.20;;;;;;;6.78;79.23;100051.61;108370;1283;22194;-67
2023/02/01 03:40:53;;;;;;;18.30;7.70;;;;;;;6.51;80.74;100053.73;108322;1281;21987;-67
2023/02/01 03:43:19;;;;;;;15.10;6.80;;;;;;;6.37;81.01;100052.17;108103;1283;22061;-67
2023/02/01 03:45:48;;;;;;;13.00;6.90;;;;;;;6.30;81.33;100055.83;108073;1283;21988;-70
2023/02/01 03:48:14;;;;;;;12.50;6.90;;;;;;;6.27;81.48;100058.45;108098;1269;21980;-68
2023/02/01 03:50:43;;;;;;;14.20;7.10;;;;;;;6.23;81.45;100058.10;108136;1282;21989;-68
2023/02/01 03:53:11;;;;;;;14.30;7.90;;;;;;;6.27;80.49;100064.38;108322;1282;22020;-67
2023/02/01 03:55:37;;;;;;;20.60;9.00;;;;;;;6.33;79.14;100064.37;108356;1283;21986;-67
2023/02/01 03:58:06;;;;;;;13.30;7.30;;;;;;;6.29;78.97;100068.38;108076;1280;21979;-67
2023/02/01 04:00:31;;;;;;;17.60;8.20;;;;;;;6.25;78.45;100068.38;108397;1280;21982;-70
2023/02/01 04:02:58;;;;;;;16.90;9.00;;;;;;;6.19;78.64;100068.55;108304;1279;21990;-66
2023/02/01 04:05:24;;;;;;;14.30;7.90;;;;;;;6.14;78.55;100072.04;108078;1283;21983;-71
2023/02/01 04:07:50;;;;;;;14.80;8.00;;;;;;;6.09;78.53;100076.56;108358;1272;21980;-67
2023/02/01 04:10:19;;;;;;;13.50;7.90;;;;;;;6.05;78.67;100080.21;108282;1283;21982;-70
2023/02/01 04:12:45;;;;;;;15.00;7.60;;;;;;;6.00;78.89;100089.05;108296;1282;22040;-70
2023/02/01 04:15:11;;;;;;;13.00;6.60;;;;;;;5.97;78.58;100089.90;108305;1277;21990;-67
2023/02/01 04:17:37;;;;;;;14.90;7.70;;;;;;;5.92;78.45;100088.52;108329;1283;21984;-67
2023/02/01 04:20:04;;;;;;;17.00;8.10;;;;;;;5.83;78.02;100087.79;108308;1283;22035;-67
2023/02/01 04:22:30;;;;;;;16.30;7.50;;;;;;;5.76;77.99;100091.43;108335;1270;22470;-67
2023/02/01 04:24:56;;;;;;;12.20;7.30;;;;;;;5.68;78.44;100093.86;108312;1282;23861;-67
2023/02/01 04:27:22;;;;;;;13.50;7.70;;;;;;;5.66;78.31;100096.63;108268;1283;22450;-70
2023/02/01 04:29:49;;;;;;;14.50;8.20;;;;;;;5.53;79.31;100099.71;108282;1283;22036;-71
2023/02/01 04:32:16;;;;;;;15.50;7.30;;;;;;;5.60;79.03;100102.69;108328;1274;21980;-70
2023/02/01 04:34:47;;;;;;;14.40;7.10;;;;;;;5.60;78.78;100101.99;108350;1283;23743;-71
2023/02/01 04:37:12;;;;;;;11.50;7.20;;;;;;;5.59;78.84;100101.13;107576;1279;1002421;-71
2023/02/01 04:39:38;;;;;;;16.20;7.60;;;;;;;5.59;78.87;100102.52;108329;1276;21986;-71
2023/02/01 04:42:04;;;;;;;11.80;7.30;;;;;;;5.58;78.57;100104.08;108286;1283;21987;-66
2023/02/01 04:44:30;;;;;;;12.50;6.80;;;;;;;5.58;78.59;100104.24;108279;1280;21998;-66
2023/02/01 04:46:56;;;;;;;16.30;7.80;;;;;;;5.57;78.65;100105.13;108333;1282;21987;-67
2023/02/01 04:49:21;;;;;;;12.10;7.20;;;;;;;5.55;78.29;100106.16;108348;1281;21971;-67
2023/02/01 04:51:47;;;;;;;11.80;6.40;;;;;;;5.46;78.70;100106.64;108289;1283;21980;-71
2023/02/01 04:54:13;;;;;;;13.10;6.70;;;;;;;5.32;79.18;100110.41;107542;1282;1002532;-67
2023/02/01 04:56:39;;;;;;;12.30;6.80;;;;;;;5.25;79.06;100114.90;108082;1283;21977;-67
2023/02/01 04:59:05;;;;;;;17.20;7.70;;;;;;;5.20;79.10;100111.74;108348;1281;22027;-67
2023/02/01 05:01:32;;;;;;;14.10;6.70;;;;;;;5.16;79.71;100111.38;108356;1283;23084;-67
2023/02/01 05:03:57;;;;;;;14.40;7.20;;;;;;;5.15;79.72;100111.89;107650;1282;1002809;-67
2023/02/01 05:06:24;;;;;;;10.30;6.00;;;;;;;5.14;79.65;100109.80;108419;1270;21978;-71
2023/02/01 05:08:49;;;;;;;15.80;7.10;;;;;;;5.24;78.92;100111.06;107635;1283;1002462;-72
2023/02/01 05:14:00;;;;;;;18.00;6.80;;;;;;;5.27;78.30;100119.61;107646;1282;1003781;-65
2023/02/01 05:16:26;;;;;;;14.20;7.20;;;;;;;5.26;77.73;100118.56;108364;1282;21980;-71
2023/02/01 05:18:52;;;;;;;14.90;7.10;;;;;;;5.24;77.64;100119.08;108379;1283;21976;-65
2023/02/01 05:21:18;;;;;;;13.20;6.40;;;;;;;5.21;77.49;100120.45;108455;1282;22142;-66
2023/02/01 05:24:29;;;;;;;10.70;6.10;;;;;;;5.18;77.13;100116.95;108405;1283;21980;-71
2023/02/01 05:26:29;;;;;;;12.00;6.50;;;;;;;5.15;76.95;100117.10;107609;1282;1002899;-70
2023/02/01 05:28:55;;;;;;;14.20;6.50;;;;;;;5.10;76.95;100113.94;108395;1282;21974;-66
2023/02/01 05:31:21;;;;;;;14.80;8.00;;;;;;;5.06;77.02;100113.93;108201;1283;22050;-66
2023/02/01 05:33:47;;;;;;;15.50;7.10;;;;;;;5.04;77.22;100115.65;108401;1282;22018;-65
2023/02/01 05:36:13;;;;;;;12.90;6.80;;;;;;;5.02;77.10;100115.83;108372;1282;22042;-72
2023/02/01 05:38:42;;;;;;;17.90;7.40;;;;;;;4.99;77.09;100117.36;108307;1283;21960;-73
2023/02/01 05:41:08;;;;;;;14.90;6.80;;;;;;;4.99;77.41;100120.84;108308;1270;22023;-66
2023/02/01 05:43:34;;;;;;;13.60;6.60;;;;;;;4.99;77.53;100126.23;108298;1282;21946;-72
2023/02/01 05:45:59;;;;;;;12.70;6.30;;;;;;;4.97;77.47;100126.38;108324;1283;21988;-66
2023/02/01 05:48:25;;;;;;;11.50;6.40;;;;;;;4.96;77.46;100127.42;107529;1283;1003195;-73
2023/02/01 05:50:51;;;;;;;14.70;7.00;;;;;;;4.94;77.19;100128.46;108092;1283;22047;-73
2023/02/01 05:53:17;;;;;;;11.90;6.10;;;;;;;4.91;77.28;100126.86;108261;1283;21986;-73
2023/02/01 05:55:43;;;;;;;15.20;7.20;;;;;;;4.93;77.75;100128.96;108312;1283;22046;-73
2023/02/01 05:58:08;;;;;;;16.50;8.80;;;;;;;4.95;78.05;100129.15;108370;1283;21987;-65
2023/02/01 06:00:34;;;;;;;14.70;7.40;;;;;;;4.97;78.11;100125.87;107357;1283;1003099;-66
2023/02/01 06:03:01;;;;;;;15.30;8.30;;;;;;;4.97;77.88;100124.48;108297;1283;22021;-65
2023/02/01 06:05:27;;;;;;;21.50;9.80;;;;;;;4.95;77.36;100126.90;108426;1282;24367;-66
2023/02/01 06:07:52;;;;;;;12.40;7.30;;;;;;;4.94;77.38;100129.15;108328;1283;23765;-73
2023/02/01 06:10:18;;;;;;;18.50;8.40;;;;;;;4.96;77.99;100129.69;108307;1281;22023;-73
2023/02/01 06:12:44;;;;;;;16.20;7.60;;;;;;;5.02;78.55;100129.55;108336;1282;21981;-72
2023/02/01 06:15:12;;;;;;;19.80;8.80;;;;;;;5.11;79.45;100128.56;108293;1283;21992;-74
2023/02/01 06:17:41;;;;;;;13.10;7.70;;;;;;;5.19;79.43;100143.22;108349;1282;24313;-63
2023/02/01 06:20:08;;;;;;;15.40;7.20;;;;;;;5.24;79.13;100142.38;108269;1282;21989;-62
2023/02/01 06:22:35;;;;;;;14.40;6.90;;;;;;;5.29;79.44;100141.55;108271;1283;21984;-74
2023/02/01 06:25:06;;;;;;;21.00;8.00;;;;;;;5.36;79.88;100142.63;108312;1283;22738;-74
2023/02/01 06:27:32;;;;;;;15.20;6.60;;;;;;;5.45;80.13;100152.23;108329;1283;22116;-62
2023/02/01 06:29:58;;;;;;;13.10;6.90;;;;;;;5.54;80.44;100153.14;108388;1283;22022;-63
2023/02/01 06:32:24;;;;;;;13.80;6.30;;;;;;;5.60;80.07;100153.35;108373;1281;21991;-72
2023/02/01 06:34:52;;;;;;;15.90;7.40;;;;;;;5.61;79.33;100158.05;108080;1283;21993;-74
2023/02/01 06:37:19;;;;;;;13.90;7.30;;;;;;;5.64;79.52;100155.11;108279;1283;21982;-64
2023/02/01 06:39:44;;;;;;;14.00;6.60;;;;;;;5.67;79.00;100150.78;108328;1282;23221;-72
2023/02/01 06:42:10;;;;;;;13.10;6.90;;;;;;;5.69;79.06;100152.17;108315;1283;22065;-73
2023/02/01 06:44:42;;;;;;;;;;;;;;;5.76;79.58;100153.59;108365;1283;21964;-73
2023/02/01 06:47:08;;;;;;;14.70;7.10;;;;;;;5.85;80.16;100148.75;108239;1281;21999;-65
2023/02/01 06:49:33;;;;;;;14.90;6.40;;;;;;;5.91;80.04;100148.25;108405;1283;21991;-74
2023/02/01 06:52:02;;;;;;;15.80;8.10;;;;;;;5.98;80.19;100150.36;108374;1283;21986;-65
2023/02/01 06:54:28;;;;;;;16.10;7.40;;;;;;;6.01;79.90;100151.27;108332;1283;22025;-73
2023/02/01 06:56:53;;;;;;;12.90;7.30;;;;;;;6.04;79.21;100149.88;108289;1277;22077;-73
2023/02/01 06:59:19;;;;;;;15.30;7.20;;;;;;;6.06;78.65;100151.10;108440;1272;21980;-66
2023/02/01 07:01:45;;;;;;;15.70;7.10;;;;;;;6.10;78.94;100154.43;107620;1283;1002616;-70
2023/02/01 07:04:11;;;;;;;13.00;6.40;;;;;;;6.18;79.19;100154.10;108315;1283;22244;-67
2023/02/01 07:06:39;;;;;;;15.20;7.90;;;;;;;6.27;79.67;100150.10;108309;1283;21991;-71
2023/02/01 07:09:06;;;;;;;14.00;7.50;;;;;;;6.35;79.87;100153.78;108405;1283;23736;-67
2023/02/01 07:11:32;;;;;;;15.50;8.20;;;;;;;6.42;79.73;100156.57;108402;1283;21990;-67
2023/02/01 07:13:58;;;;;;;19.50;8.60;;;;;;;6.47;79.49;100149.95;108385;1272;21988;-67
2023/02/01 07:16:24;;;;;;;20.60;10.50;;;;;;;6.51;79.39;100148.05;108255;1283;21955;-72
2023/02/01 07:18:51;;;;;;;21.10;10.80;;;;;;;6.59;79.52;100151.89;108291;1283;21983;-71
2023/02/01 07:21:16;;;;;;;22.90;11.40;;;;;;;6.66;79.14;100150.31;108189;1276;21974;-72
2023/02/01 07:23:42;;;;;;;20.00;10.40;;;;;;;6.68;78.75;100151.00;108285;1283;22058;-73
2023/02/01 07:26:11;;;;;;;21.50;9.70;;;;;;;6.74;78.54;100154.15;108279;1275;21983;-73
2023/02/01 07:28:37;;;;;;;18.50;9.10;;;;;;;6.81;78.88;100152.05;107592;1283;1002082;-73
2023/02/01 07:31:07;;;;;;;14.70;7.80;;;;;;;6.86;78.62;100150.30;108367;1283;21982;-73
2023/02/01 07:33:46;;;;;;;15.00;7.20;;;;;;;6.92;78.24;100149.61;108392;1283;21984;-73
2023/02/01 07:36:15;;;;;;;14.70;6.60;;;;;;;6.98;78.76;100144.02;108352;1280;22302;-68
2023/02/01 07:38:42;;;;;;;16.90;7.90;;;;;;;7.08;79.03;100138.59;108502;1281;22052;-74
2023/02/01 07:41:08;;;;;;;21.60;11.20;;;;;;;7.16;78.39;100135.95;108291;1271;21992;-67
2023/02/01 07:43:34;;;;;;;19.30;10.00;;;;;;;7.20;77.53;100138.58;108410;1280;22014;-68
2023/02/01 07:46:00;;;;;;;15.60;9.90;;;;;;;7.19;76.57;100138.73;108297;1283;21993;-69
2023/02/01 07:48:26;;;;;;;15.80;7.80;;;;;;;7.14;75.33;100141.55;108283;1283;21988;-68
2023/02/01 07:51:12;;;;;;;13.90;8.10;;;;;;;7.07;74.56;100141.55;108368;1283;21978;-69
2023/02/01 07:53:37;;;;;;;12.10;6.40;;;;;;;7.06;74.60;100146.80;108281;1281;21980;-69
2023/02/01 07:56:04;;;;;;;15.30;6.80;;;;;;;7.08;74.84;100143.64;107563;1282;1003141;-69
2023/02/01 07:58:30;;;;;;;19.20;7.50;;;;;;;7.11;75.24;100144.68;108313;1283;23628;-76
2023/02/01 08:03:41;;;;;;;14.90;6.60;;;;;;;7.19;74.92;100146.24;107199;1283;1002779;-76
2023/02/01 08:06:07;;;;;;;13.70;6.70;;;;;;;7.18;74.88;100147.82;108359;1271;22075;-68
2023/02/01 08:08:33;;;;;;;15.00;7.10;;;;;;;7.22;74.54;100143.45;108428;1283;23839;-68
2023/02/01 08:11:00;;;;;;;15.00;7.20;;;;;;;7.25;74.42;100142.57;108254;1283;22249;-69
2023/02/01 08:13:25;;;;;;;12.60;7.20;;;;;;;7.28;74.44;100139.60;108301;1283;23094;-68
2023/02/01 08:15:52;;;;;;;14.40;7.00;;;;;;;7.38;75.00;100137.11;108294;1283;23708;-69
2023/02/01 08:18:18;;;;;;;12.80;6.10;;;;;;;7.49;75.50;100139.36;108269;1283;23721;-68
2023/02/01 08:20:45;;;;;;;10.90;5.90;;;;;;;7.58;75.08;100140.73;108276;1281;23641;-69
2023/02/01 08:23:11;;;;;;;14.40;6.20;;;;;;;7.57;73.70;100136.88;108232;1283;21986;-68
2023/02/01 08:25:38;;;;;;;16.30;6.40;;;;;;;7.65;75.25;100135.64;108389;1283;23605;-70
2023/02/01 08:28:06;;;;;;;13.90;7.20;;;;;;;7.80;76.20;100135.56;108342;1283;21980;-68
2023/02/01 08:30:33;;;;;;;14.70;7.10;;;;;;;7.93;76.07;100136.02;108419;1283;21988;-68
2023/02/01 08:33:00;;;;;;;12.90;5.80;;;;;;;8.05;76.35;100138.75;108270;1282;22006;-68
2023/02/01 08:35:26;;;;;;;15.80;7.90;;;;;;;8.18;76.91;100137.96;108356;1283;22162;-68
2023/02/01 08:37:52;;;;;;;14.50;6.70;;;;;;;8.29;75.32;100137.02;108294;1283;23425;-75
2023/02/01 08:40:19;;;;;;;19.00;11.10;;;;;;;8.36;75.33;100137.52;108276;1282;23734;-69
2023/02/01 08:42:51;;;;;;;15.70;8.20;;;;;;;8.45;75.77;100140.23;108377;1281;22222;-75
2023/02/01 08:45:24;;;;;;;14.00;8.20;;;;;;;8.51;75.31;100143.89;107641;1283;1002585;-67
2023/02/01 08:47:52;;;;;;;15.50;7.10;;;;;;;8.57;75.60;100147.70;108356;1283;21983;-67
2023/02/01 08:50:18;;;;;;;11.90;5.90;;;;;;;8.66;75.92;100144.66;108352;1282;23637;-75
2023/02/01 08:52:45;;;;;;;12.20;6.70;;;;;;;8.71;74.51;100144.45;108341;1270;21980;-66
2023/02/01 08:55:14;;;;;;;16.20;7.30;;;;;;;8.71;73.50;100142.69;108433;1281;21984;-74
2023/02/01 08:57:43;;;;;;;;;;;;;;;8.74;73.64;100142.31;108395;1280;21969;-67
2023/02/01 09:00:12;;;;;;;14.20;7.10;;;;;;;8.76;73.70;100140.73;108232;1283;21986;-66
2023/02/01 09:02:38;;;;;;;13.50;6.70;;;;;;;8.80;73.80;100137.36;108448;1282;21988;-73
2023/02/01 09:05:04;;;;;;;15.00;7.30;;;;;;;8.92;74.84;100133.75;108323;1282;21992;-66
2023/02/01 09:07:31;;;;;;;13.70;7.10;;;;;;;8.99;73.67;100130.02;108337;1282;23711;-76
2023/02/01 09:10:00;;;;;;;12.20;6.50;;;;;;;9.11;74.39;100125.02;108302;1283;22037;-74
2023/02/01 09:12:28;;;;;;;12.90;6.00;;;;;;;9.22;74.69;100121.04;108402;1283;23735;-74
2023/02/01 09:14:59;;;;;;;11.80;6.50;;;;;;;9.31;74.53;100115.33;108457;1283;21981;-74
2023/02/01 09:17:28;;;;;;;18.70;7.70;;;;;;;9.43;74.98;100110.46;108375;1283;23589;-65
2023/02/01 09:19:55;;;;;;;14.50;6.60;;;;;;;9.54;74.37;100105.42;108486;1282;22075;-66
2023/02/01 09:22:21;;;;;;;14.00;7.00;;;;;;;9.65;73.69;100103.53;108261;1277;21985;-66
2023/02/01 09:24:47;;;;;;;10.80;5.70;;;;;;;9.76;74.11;100101.81;108404;1282;21984;-68
2023/02/01 09:27:13;;;;;;;14.50;7.10;;;;;;;9.76;72.04;100099.89;108426;1282;21981;-66
2023/02/01 09:29:38;;;;;;;13.70;6.90;;;;;;;9.77;71.24;100098.65;108436;1283;21982;-73
2023/02/01 09:32:06;;;;;;;13.60;6.40;;;;;;;9.84;72.58;100095.23;108381;1282;22041;-66
2023/02/01 09:34:33;;;;;;;14.20;7.10;;;;;;;9.88;71.39;100091.67;108263;1283;22156;-72
2023/02/01 09:36:59;;;;;;;16.00;6.90;;;;;;;9.87;70.98;100088.34;108276;1280;21991;-72
2023/02/01 09:39:29;;;;;;;16.00;6.60;;;;;;;9.95;72.01;100080.86;108310;1283;22037;-71
2023/02/01 09:42:01;;;;;;;17.30;6.50;;;;;;;10.02;70.09;100079.20;107617;1282;1002852;-72
2023/02/01 09:44:54;;;;;;;11.60;6.00;;;;;;;10.07;69.05;100075.09;108329;1270;21986;-67
2023/02/01 09:47:22;;;;;;;14.90;6.30;;;;;;;10.14;70.59;100073.41;108293;1283;21988;-73
2023/02/01 09:50:08;;;;;;;12.00;5.70;;;;;;;10.22;70.46;100073.45;108315;1283;24323;-72
2023/02/01 09:52:45;;;;;;;13.70;5.70;;;;;;;10.30;71.30;100070.18;108106;1283;21976;-71
2023/02/01 09:55:16;;;;;;;16.70;6.00;;;;;;;10.40;70.56;100064.42;108315;1282;23631;-72
2023/02/01 09:57:56;;;;;;;13.30;5.90;;;;;;;10.48;70.28;100063.09;108355;1282;21982;-67
2023/02/01 10:00:27;;;;;;;16.40;6.30;;;;;;;10.52;69.15;100065.64;108338;1280;21980;-67
2023/02/01 10:02:54;;;;;;;16.80;7.00;;;;;;;10.59;68.97;100064.83;108352;1282;21983;-68
2023/02/01 10:05:30;;;;;;;17.70;6.50;;;;;;;10.69;70.04;100055.34;108130;1283;21992;-67
2023/02/01 10:08:43;;;;;;;27.50;14.80;;;;;;;10.80;70.20;100052.33;108305;1283;22037;-71
2023/02/01 10:11:21;;;;;;;13.10;6.40;;;;;;;10.93;68.67;100051.05;108323;1283;23049;-67
2023/02/01 10:14:13;;;;;;;7.60;4.20;;;;;;;10.91;66.48;100054.94;108348;1282;21986;-72
2023/02/01 10:16:51;;;;;;;12.80;5.30;;;;;;;10.89;64.97;100052.70;108200;1282;22043;-67
2023/02/01 10:19:29;;;;;;;14.30;5.10;;;;;;;10.88;64.96;100051.66;108373;1282;22281;-68
2023/02/01 10:22:22;;;;;;;13.30;5.10;;;;;;;10.89;65.48;100050.07;108320;1283;23729;-69
2023/02/01 10:25:28;;;;;;;7.60;4.10;;;;;;;10.85;61.94;100045.74;107544;1283;1002645;-69
2023/02/01 10:27:54;;;;;;;10.10;4.50;;;;;;;10.68;59.81;100045.54;107728;1290;23848;-70
2023/02/01 10:30:25;;;;;;;10.50;4.80;;;;;;;10.60;60.42;100045.67;108254;1282;21981;-69
2023/02/01 10:33:08;;;;;;;11.40;4.40;;;;;;;10.53;60.86;100042.48;108317;1283;21993;-69
2023/02/01 10:35:36;;;;;;;7.30;3.60;;;;;;;10.49;61.44;100031.14;108339;1283;21984;-71
2023/02/01 10:38:03;;;;;;;10.90;3.70;;;;;;;10.51;63.29;100027.77;108064;1283;22849;-71
2023/02/01 10:40:29;;;;;;;9.00;3.80;;;;;;;10.52;63.30;100027.21;108384;1270;21984;-70
2023/02/01 10:42:59;;;;;;;7.70;4.00;;;;;;;10.58;63.90;100024.65;108311;1281;23708;-71
2023/02/01 10:45:27;;;;;;;9.10;4.40;;;;;;;10.67;63.61;100018.35;108347;1281;22020;-69
2023/02/01 10:47:53;;;;;;;10.20;4.00;;;;;;;10.76;63.22;100014.33;108116;1282;21978;-70
2023/02/01 10:50:41;;;;;;;103.90;30.70;;;;;;;10.92;65.74;100013.15;108310;1282;21986;-71
2023/02/01 10:53:29;;;;;;;107.50;31.50;;;;;;;11.17;67.24;100011.05;108405;1276;22436;-72
2023/02/01 10:55:55;;;;;;;18.50;7.00;;;;;;;11.46;66.24;100008.70;108406;1282;21978;-72
2023/02/01 10:58:33;;;;;;;21.50;8.20;;;;;;;11.63;63.88;100002.71;108370;1282;21989;-71
2023/02/01 11:01:04;;;;;;;12.40;4.60;;;;;;;11.80;64.25;99996.17;108457;1282;23042;-72
2023/02/01 11:03:39;;;;;;;45.50;16.80;;;;;;;11.96;63.20;99993.52;108487;1283;21985;-72
2023/02/01 11:06:19;;;;;;;21.10;7.20;;;;;;;12.01;60.50;99991.13;108347;1282;21980;-71
2023/02/01 11:08:50;;;;;;;9.90;4.20;;;;;;;12.04;61.56;99991.23;108383;1282;21983;-71
2023/02/01 11:11:16;;;;;;;16.90;5.50;;;;;;;12.02;62.84;99989.16;108484;1283;23748;-74
2023/02/01 11:13:42;;;;;;;9.70;4.10;;;;;;;12.02;62.59;99985.80;108358;1282;22007;-72
2023/02/01 11:16:11;;;;;;;8.10;4.10;;;;;;;11.98;61.33;99987.83;108557;1276;22014;-73
2023/02/01 11:18:38;;;;;;;8.10;4.30;;;;;;;11.92;61.43;99984.45;108399;1283;22110;-73
2023/02/01 11:21:06;;;;;;;12.30;4.40;;;;;;;11.86;60.43;99984.59;108587;1283;22734;-73
2023/02/01 11:23:33;;;;;;;15.70;7.30;;;;;;;11.78;60.88;99986.72;108566;1283;23069;-74
2023/02/01 11:26:07;;;;;;;13.70;6.90;;;;;;;11.77;61.78;99986.23;108396;1283;21987;-73
2023/02/01 11:28:33;;;;;;;26.70;11.00;;;;;;;11.74;61.54;99982.07;108380;1283;23744;-74
2023/02/01 11:31:04;;;;;;;24.00;9.50;;;;;;;11.76;62.47;99977.09;108559;1283;21980;-74
2023/02/01 11:33:35;;;;;;;55.30;20.00;;;;;;;11.81;61.80;99975.24;108584;1283;22055;-72
2023/02/01 11:36:14;;;;;;;45.90;18.80;;;;;;;11.82;61.58;99973.09;107853;1283;1002495;-72
2023/02/01 11:38:39;;;;;;;24.70;12.60;;;;;;;11.70;60.84;99971.25;108601;1283;22079;-72
2023/02/01 11:41:11;;;;;;;14.60;6.80;;;;;;;11.65;61.85;99972.44;108592;1283;24901;-72
2023/02/01 11:43:49;;;;;;;9.70;5.40;;;;;;;11.62;62.41;99969.71;108498;1283;23721;-72
2023/02/01 11:46:24;;;;;;;8.80;4.40;;;;;;;11.58;62.21;99972.77;108598;1283;22059;-73
2023/02/01 11:48:52;;;;;;;10.50;4.50;;;;;;;11.51;61.90;99973.98;108528;1283;23057;-73
2023/02/01 11:51:39;;;;;;;12.90;5.00;;;;;;;11.48;62.56;99974.92;108601;1283;21980;-72
2023/02/01 11:54:08;;;;;;;13.40;5.50;;;;;;;11.39;60.37;99977.77;108589;1283;22417;-72